Clear Sky Current Weather (METAR) For Bournemouth Airport

All times on the weather descriptions are local

Observed at 19:50 - (28 mins ago)

Clear Sky

26°C

Clear Sky
Clouds:
Wind: 170° at 07 knots
Visibility: Greater than 10km
QNH: 1015
Dew Point: 14°C
Runway in Use:
Runway 26 - 08 has a direct crosswind

Sunrise Today: 05:21
Sunset Today: 21:06

Forecast Weather (TAF) For Bournemouth Airport

Issued at 01:00 - (6 days 4 hrs ago)


Runway in Use: Unable to determine, wind is clam

Forecast valid until 01:00 on Thursday

METAR/TAF RAW METAR / TAF

EGHH 241850Z 17007KT CAVOK 26/14 Q1015

Weather Widget

Put weather from any of our airports on your website with our weather widget.

Find Another Search

Airport Search


Please Wait Please Wait - Loading
Close
Close

Login

Username:

Password:

Remember Me:

Remember me on this computer

Forgotten your password? Get a reset password sent to your registered e-mail address

Close

User Private Message

Subject:

Message: